sensor_id;sensor_type;location;lat;lon;timestamp;temperature;humidity
7163;DHT22;3623;47.098;15.446;2024-03-23T00:53:32;9.90;96.90
7163;DHT22;3623;47.098;15.446;2024-03-23T00:55:59;9.80;96.90
7163;DHT22;3623;47.098;15.446;2024-03-23T00:58:26;9.80;97.10
7163;DHT22;3623;47.098;15.446;2024-03-23T01:00:53;9.80;97.10
7163;DHT22;3623;47.098;15.446;2024-03-23T01:03:19;9.80;97.30
7163;DHT22;3623;47.098;15.446;2024-03-23T01:05:46;9.70;97.40
7163;DHT22;3623;47.098;15.446;2024-03-23T01:08:12;9.70;97.60
7163;DHT22;3623;47.098;15.446;2024-03-23T01:10:41;9.60;97.50
7163;DHT22;3623;47.098;15.446;2024-03-23T01:13:07;9.60;97.70
7163;DHT22;3623;47.098;15.446;2024-03-23T01:15:35;9.60;97.90
7163;DHT22;3623;47.098;15.446;2024-03-23T01:18:01;9.50;97.80
7163;DHT22;3623;47.098;15.446;2024-03-23T01:20:28;9.50;97.90
7163;DHT22;3623;47.098;15.446;2024-03-23T01:22:54;9.50;98.10
7163;DHT22;3623;47.098;15.446;2024-03-23T01:25:21;9.50;98.00
7163;DHT22;3623;47.098;15.446;2024-03-23T01:27:49;9.50;98.20
7163;DHT22;3623;47.098;15.446;2024-03-23T01:30:16;9.40;98.20
7163;DHT22;3623;47.098;15.446;2024-03-23T01:32:42;9.40;98.40
7163;DHT22;3623;47.098;15.446;2024-03-23T01:35:09;9.40;98.50
7163;DHT22;3623;47.098;15.446;2024-03-23T01:37:36;9.30;98.70
7163;DHT22;3623;47.098;15.446;2024-03-23T01:40:03;9.30;98.60
7163;DHT22;3623;47.098;15.446;2024-03-23T01:42:30;9.30;98.70
7163;DHT22;3623;47.098;15.446;2024-03-23T01:44:58;9.40;98.70
7163;DHT22;3623;47.098;15.446;2024-03-23T01:47:24;9.30;98.50
7163;DHT22;3623;47.098;15.446;2024-03-23T01:49:52;9.30;98.80
7163;DHT22;3623;47.098;15.446;2024-03-23T01:52:18;9.30;98.80
7163;DHT22;3623;47.098;15.446;2024-03-23T01:54:45;9.30;99.00
7163;DHT22;3623;47.098;15.446;2024-03-23T01:57:11;9.20;99.10
7163;DHT22;3623;47.098;15.446;2024-03-23T01:59:39;9.20;99.10
7163;DHT22;3623;47.098;15.446;2024-03-23T02:02:07;9.20;99.10
7163;DHT22;3623;47.098;15.446;2024-03-23T02:04:34;9.10;99.20
7163;DHT22;3623;47.098;15.446;2024-03-23T02:07:00;9.10;99.30
7163;DHT22;3623;47.098;15.446;2024-03-23T02:09:28;9.20;99.10
7163;DHT22;3623;47.098;15.446;2024-03-23T02:11:54;9.20;99.30
7163;DHT22;3623;47.098;15.446;2024-03-23T02:14:22;9.10;99.50
7163;DHT22;3623;47.098;15.446;2024-03-23T02:16:48;9.10;99.50
7163;DHT22;3623;47.098;15.446;2024-03-23T02:19:17;9.10;99.70
7163;DHT22;3623;47.098;15.446;2024-03-23T02:21:43;9.10;99.60
7163;DHT22;3623;47.098;15.446;2024-03-23T02:24:11;9.20;99.50
7163;DHT22;3623;47.098;15.446;2024-03-23T02:26:37;9.10;99.60
7163;DHT22;3623;47.098;15.446;2024-03-23T02:29:05;9.10;99.60
7163;DHT22;3623;47.098;15.446;2024-03-23T02:31:31;9.00;99.80
7163;DHT22;3623;47.098;15.446;2024-03-23T02:33:58;9.00;99.70
7163;DHT22;3623;47.098;15.446;2024-03-23T02:36:24;9.00;99.70
7163;DHT22;3623;47.098;15.446;2024-03-23T02:38:53;9.00;99.80
7163;DHT22;3623;47.098;15.446;2024-03-23T02:41:21;8.90;99.90
7163;DHT22;3623;47.098;15.446;2024-03-23T02:43:49;8.90;99.90
7163;DHT22;3623;47.098;15.446;2024-03-23T02:46:15;8.90;99.90
7163;DHT22;3623;47.098;15.446;2024-03-23T02:48:43;8.90;99.90
7163;DHT22;3623;47.098;15.446;2024-03-23T02:51:09;8.90;99.90
7163;DHT22;3623;47.098;15.446;2024-03-23T02:53:36;8.90;99.90
7163;DHT22;3623;47.098;15.446;2024-03-23T02:56:03;8.80;99.90
7163;DHT22;3623;47.098;15.446;2024-03-23T02:58:32;8.70;99.90
7163;DHT22;3623;47.098;15.446;2024-03-23T03:00:58;8.60;99.90
7163;DHT22;3623;47.098;15.446;2024-03-23T03:03:25;8.60;99.90
7163;DHT22;3623;47.098;15.446;2024-03-23T03:05:55;8.50;99.90
7163;DHT22;3623;47.098;15.446;2024-03-23T03:08:22;8.40;99.90
7163;DHT22;3623;47.098;15.446;2024-03-23T03:10:48;8.40;99.90
7163;DHT22;3623;47.098;15.446;2024-03-23T03:13:15;8.30;99.90
7163;DHT22;3623;47.098;15.446;2024-03-23T03:15:43;8.30;99.90
7163;DHT22;3623;47.098;15.446;2024-03-23T03:18:10;8.30;99.90
7163;DHT22;3623;47.098;15.446;2024-03-23T03:20:38;8.30;99.90
7163;DHT22;3623;47.098;15.446;2024-03-23T03:23:06;8.30;99.90
7163;DHT22;3623;47.098;15.446;2024-03-23T03:25:32;8.30;99.90
7163;DHT22;3623;47.098;15.446;2024-03-23T03:28:00;8.20;99.90
7163;DHT22;3623;47.098;15.446;2024-03-23T03:30:26;8.20;99.90
7163;DHT22;3623;47.098;15.446;2024-03-23T03:32:54;8.20;99.90
7163;DHT22;3623;47.098;15.446;2024-03-23T03:35:21;8.20;99.90
7163;DHT22;3623;47.098;15.446;2024-03-23T03:37:48;8.20;99.90
7163;DHT22;3623;47.098;15.446;2024-03-23T03:40:14;8.20;99.90
7163;DHT22;3623;47.098;15.446;2024-03-23T03:42:42;8.10;99.90
7163;DHT22;3623;47.098;15.446;2024-03-23T03:45:08;8.00;99.90
7163;DHT22;3623;47.098;15.446;2024-03-23T03:47:35;8.00;99.90
7163;DHT22;3623;47.098;15.446;2024-03-23T03:50:03;8.00;99.90
7163;DHT22;3623;47.098;15.446;2024-03-23T03:52:30;8.00;99.90
7163;DHT22;3623;47.098;15.446;2024-03-23T03:55:02;8.00;99.90
7163;DHT22;3623;47.098;15.446;2024-03-23T03:57:30;8.00;99.90
7163;DHT22;3623;47.098;15.446;2024-03-23T03:59:56;8.00;99.90
7163;DHT22;3623;47.098;15.446;2024-03-23T04:02:23;8.00;99.90
7163;DHT22;3623;47.098;15.446;2024-03-23T04:04:49;8.00;99.90
7163;DHT22;3623;47.098;15.446;2024-03-23T04:07:18;8.10;99.90
7163;DHT22;3623;47.098;15.446;2024-03-23T04:09:44;8.10;99.90
7163;DHT22;3623;47.098;15.446;2024-03-23T04:12:11;8.10;99.90
7163;DHT22;3623;47.098;15.446;2024-03-23T04:14:37;8.10;99.90
7163;DHT22;3623;47.098;15.446;2024-03-23T04:17:04;8.00;99.90
7163;DHT22;3623;47.098;15.446;2024-03-23T04:19:31;8.10;99.90
7163;DHT22;3623;47.098;15.446;2024-03-23T04:21:58;8.10;99.90
7163;DHT22;3623;47.098;15.446;2024-03-23T04:24:25;8.10;99.90
7163;DHT22;3623;47.098;15.446;2024-03-23T04:26:53;8.10;99.90
7163;DHT22;3623;47.098;15.446;2024-03-23T04:29:19;8.10;99.90
7163;DHT22;3623;47.098;15.446;2024-03-23T04:31:46;8.10;99.90
7163;DHT22;3623;47.098;15.446;2024-03-23T04:34:13;8.10;99.90
7163;DHT22;3623;47.098;15.446;2024-03-23T04:36:40;8.20;99.90
7163;DHT22;3623;47.098;15.446;2024-03-23T04:39:06;8.20;99.90
7163;DHT22;3623;47.098;15.446;2024-03-23T04:41:36;8.20;99.90
7163;DHT22;3623;47.098;15.446;2024-03-23T04:44:03;8.20;99.90
7163;DHT22;3623;47.098;15.446;2024-03-23T04:46:30;8.20;99.90
7163;DHT22;3623;47.098;15.446;2024-03-23T04:48:57;8.20;99.90
7163;DHT22;3623;47.098;15.446;2024-03-23T04:51:24;8.20;99.90
7163;DHT22;3623;47.098;15.446;2024-03-23T04:53:52;8.20;99.90
7163;DHT22;3623;47.098;15.446;2024-03-23T04:56:18;8.20;99.90
7163;DHT22;3623;47.098;15.446;2024-03-23T04:58:47;8.20;99.90
7163;DHT22;3623;47.098;15.446;2024-03-23T05:01:14;8.20;99.90
7163;DHT22;3623;47.098;15.446;2024-03-23T05:03:41;8.30;99.90
7163;DHT22;3623;47.098;15.446;2024-03-23T05:06:07;8.20;99.90
7163;DHT22;3623;47.098;15.446;2024-03-23T05:08:34;8.20;99.90
7163;DHT22;3623;47.098;15.446;2024-03-23T05:11:00;8.30;99.90
7163;DHT22;3623;47.098;15.446;2024-03-23T05:13:28;8.30;99.90
7163;DHT22;3623;47.098;15.446;2024-03-23T05:15:57;8.30;99.90
7163;DHT22;3623;47.098;15.446;2024-03-23T05:18:23;8.30;99.90
7163;DHT22;3623;47.098;15.446;2024-03-23T05:20:56;8.40;99.90
7163;DHT22;3623;47.098;15.446;2024-03-23T05:23:23;8.40;99.90
7163;DHT22;3623;47.098;15.446;2024-03-23T05:25:50;8.40;99.90
7163;DHT22;3623;47.098;15.446;2024-03-23T05:28:17;8.50;99.90
7163;DHT22;3623;47.098;15.446;2024-03-23T05:30:50;8.60;99.90
7163;DHT22;3623;47.098;15.446;2024-03-23T05:33:18;8.60;99.90
7163;DHT22;3623;47.098;15.446;2024-03-23T05:35:45;8.70;99.90
7163;DHT22;3623;47.098;15.446;2024-03-23T05:38:12;8.70;99.90
7163;DHT22;3623;47.098;15.446;2024-03-23T05:40:39;8.70;99.90
7163;DHT22;3623;47.098;15.446;2024-03-23T05:43:06;8.80;99.90
7163;DHT22;3623;47.098;15.446;2024-03-23T05:45:33;8.80;99.90
7163;DHT22;3623;47.098;15.446;2024-03-23T05:47:59;8.90;99.90
7163;DHT22;3623;47.098;15.446;2024-03-23T05:50:28;9.00;99.90
7163;DHT22;3623;47.098;15.446;2024-03-23T05:52:54;9.00;99.90
7163;DHT22;3623;47.098;15.446;2024-03-23T05:55:21;9.00;99.90
7163;DHT22;3623;47.098;15.446;2024-03-23T05:57:47;9.10;99.90
7163;DHT22;3623;47.098;15.446;2024-03-23T06:00:15;9.10;99.90
7163;DHT22;3623;47.098;15.446;2024-03-23T06:02:42;9.20;99.90
7163;DHT22;3623;47.098;15.446;2024-03-23T06:05:10;9.20;99.90
7163;DHT22;3623;47.098;15.446;2024-03-23T06:07:38;9.20;99.90
7163;DHT22;3623;47.098;15.446;2024-03-23T06:10:06;9.20;99.90
7163;DHT22;3623;47.098;15.446;2024-03-23T06:12:32;9.30;99.90
7163;DHT22;3623;47.098;15.446;2024-03-23T06:14:59;9.30;99.90
7163;DHT22;3623;47.098;15.446;2024-03-23T06:17:25;9.30;99.90
7163;DHT22;3623;47.098;15.446;2024-03-23T06:19:53;9.40;99.90
7163;DHT22;3623;47.098;15.446;2024-03-23T06:22:19;9.50;99.90
7163;DHT22;3623;47.098;15.446;2024-03-23T06:24:47;9.50;99.90
7163;DHT22;3623;47.098;15.446;2024-03-23T06:27:14;9.60;99.90
7163;DHT22;3623;47.098;15.446;2024-03-23T06:29:41;9.70;99.90
7163;DHT22;3623;47.098;15.446;2024-03-23T06:32:07;9.80;99.90
7163;DHT22;3623;47.098;15.446;2024-03-23T06:34:34;9.90;99.90
7163;DHT22;3623;47.098;15.446;2024-03-23T06:37:01;9.90;99.90
7163;DHT22;3623;47.098;15.446;2024-03-23T06:39:29;10.00;99.90
7163;DHT22;3623;47.098;15.446;2024-03-23T06:41:56;10.10;99.90
7163;DHT22;3623;47.098;15.446;2024-03-23T06:44:23;10.20;99.90
7163;DHT22;3623;47.098;15.446;2024-03-23T06:46:50;10.10;99.90
7163;DHT22;3623;47.098;15.446;2024-03-23T06:49:17;10.20;99.90
7163;DHT22;3623;47.098;15.446;2024-03-23T06:51:43;10.30;99.90
7163;DHT22;3623;47.098;15.446;2024-03-23T06:54:11;10.30;99.90
7163;DHT22;3623;47.098;15.446;2024-03-23T06:56:38;10.40;99.90
7163;DHT22;3623;47.098;15.446;2024-03-23T06:59:06;10.40;99.90
7163;DHT22;3623;47.098;15.446;2024-03-23T07:01:33;10.40;99.90
7163;DHT22;3623;47.098;15.446;2024-03-23T07:04:01;10.50;99.90
7163;DHT22;3623;47.098;15.446;2024-03-23T07:06:27;10.50;99.90
7163;DHT22;3623;47.098;15.446;2024-03-23T07:08:54;10.50;99.90
7163;DHT22;3623;47.098;15.446;2024-03-23T07:11:21;10.60;99.90
7163;DHT22;3623;47.098;15.446;2024-03-23T07:13:50;10.60;99.90
7163;DHT22;3623;47.098;15.446;2024-03-23T07:16:17;10.70;99.90
7163;DHT22;3623;47.098;15.446;2024-03-23T07:18:45;10.70;99.90
7163;DHT22;3623;47.098;15.446;2024-03-23T07:21:11;10.80;99.90
7163;DHT22;3623;47.098;15.446;2024-03-23T07:23:42;10.90;99.90
7163;DHT22;3623;47.098;15.446;2024-03-23T07:26:10;11.00;99.90
7163;DHT22;3623;47.098;15.446;2024-03-23T07:28:37;11.00;99.90
7163;DHT22;3623;47.098;15.446;2024-03-23T07:31:05;11.10;99.90
7163;DHT22;3623;47.098;15.446;2024-03-23T07:33:34;11.10;99.90
7163;DHT22;3623;47.098;15.446;2024-03-23T07:36:00;11.20;99.90
7163;DHT22;3623;47.098;15.446;2024-03-23T07:38:28;11.20;99.90
7163;DHT22;3623;47.098;15.446;2024-03-23T07:41:03;11.30;99.90
7163;DHT22;3623;47.098;15.446;2024-03-23T07:43:31;11.30;99.90
7163;DHT22;3623;47.098;15.446;2024-03-23T07:45:57;11.40;99.90
7163;DHT22;3623;47.098;15.446;2024-03-23T07:48:25;11.40;99.90
7163;DHT22;3623;47.098;15.446;2024-03-23T07:51:03;11.30;99.90
7163;DHT22;3623;47.098;15.446;2024-03-23T07:53:31;11.30;99.90
7163;DHT22;3623;47.098;15.446;2024-03-23T07:56:00;11.40;99.90
7163;DHT22;3623;47.098;15.446;2024-03-23T07:58:27;11.50;99.90
7163;DHT22;3623;47.098;15.446;2024-03-23T08:00:54;11.60;99.90
7163;DHT22;3623;47.098;15.446;2024-03-23T08:03:21;11.70;99.90
7163;DHT22;3623;47.098;15.446;2024-03-23T08:05:48;11.70;99.90
7163;DHT22;3623;47.098;15.446;2024-03-23T08:08:16;11.80;99.90
7163;DHT22;3623;47.098;15.446;2024-03-23T08:10:49;12.00;99.60
7163;DHT22;3623;47.098;15.446;2024-03-23T08:13:16;12.00;99.10
7163;DHT22;3623;47.098;15.446;2024-03-23T08:15:42;12.30;99.50
7163;DHT22;3623;47.098;15.446;2024-03-23T08:18:10;12.50;99.50
7163;DHT22;3623;47.098;15.446;2024-03-23T08:20:36;12.70;99.40
7163;DHT22;3623;47.098;15.446;2024-03-23T08:23:05;12.70;98.90
7163;DHT22;3623;47.098;15.446;2024-03-23T08:25:33;12.80;99.60
7163;DHT22;3623;47.098;15.446;2024-03-23T08:28:01;12.90;98.80
7163;DHT22;3623;47.098;15.446;2024-03-23T08:30:28;13.00;98.80
7163;DHT22;3623;47.098;15.446;2024-03-23T08:32:56;13.00;99.00
7163;DHT22;3623;47.098;15.446;2024-03-23T08:35:22;13.10;98.80
7163;DHT22;3623;47.098;15.446;2024-03-23T08:37:49;13.20;98.70
7163;DHT22;3623;47.098;15.446;2024-03-23T08:40:15;13.20;98.50
7163;DHT22;3623;47.098;15.446;2024-03-23T08:42:44;13.20;98.30
7163;DHT22;3623;47.098;15.446;2024-03-23T08:45:10;13.10;98.60
7163;DHT22;3623;47.098;15.446;2024-03-23T08:47:37;13.10;98.50
7163;DHT22;3623;47.098;15.446;2024-03-23T08:50:04;13.10;98.40
7163;DHT22;3623;47.098;15.446;2024-03-23T08:52:32;13.10;98.30
7163;DHT22;3623;47.098;15.446;2024-03-23T08:54:59;13.20;97.90
7163;DHT22;3623;47.098;15.446;2024-03-23T08:57:27;13.30;97.80
7163;DHT22;3623;47.098;15.446;2024-03-23T08:59:54;13.40;97.40
7163;DHT22;3623;47.098;15.446;2024-03-23T09:02:21;13.50;97.40
7163;DHT22;3623;47.098;15.446;2024-03-23T09:04:48;13.60;96.90
7163;DHT22;3623;47.098;15.446;2024-03-23T09:07:15;13.80;97.90
7163;DHT22;3623;47.098;15.446;2024-03-23T09:09:41;14.10;97.80
7163;DHT22;3623;47.098;15.446;2024-03-23T09:12:09;14.30;96.90
7163;DHT22;3623;47.098;15.446;2024-03-23T09:14:35;14.50;96.00
7163;DHT22;3623;47.098;15.446;2024-03-23T09:17:04;14.80;96.10
7163;DHT22;3623;47.098;15.446;2024-03-23T09:19:31;14.30;96.30
7163;DHT22;3623;47.098;15.446;2024-03-23T09:21:58;15.30;97.10
7163;DHT22;3623;47.098;15.446;2024-03-23T09:24:24;15.50;97.50
7163;DHT22;3623;47.098;15.446;2024-03-23T09:26:52;15.60;96.80
7163;DHT22;3623;47.098;15.446;2024-03-23T09:29:18;15.80;96.90
7163;DHT22;3623;47.098;15.446;2024-03-23T09:31:45;15.90;97.50
7163;DHT22;3623;47.098;15.446;2024-03-23T09:34:13;15.90;96.70
7163;DHT22;3623;47.098;15.446;2024-03-23T09:36:41;15.80;96.60
7163;DHT22;3623;47.098;15.446;2024-03-23T09:39:07;15.80;98.00
7163;DHT22;3623;47.098;15.446;2024-03-23T09:41:35;15.90;97.50
7163;DHT22;3623;47.098;15.446;2024-03-23T09:44:01;15.70;96.80
7163;DHT22;3623;47.098;15.446;2024-03-23T09:46:28;15.80;96.80
7163;DHT22;3623;47.098;15.446;2024-03-23T09:49:00;15.90;97.00
7163;DHT22;3623;47.098;15.446;2024-03-23T09:51:31;16.00;98.10
7163;DHT22;3623;47.098;15.446;2024-03-23T09:53:57;16.30;98.00
7163;DHT22;3623;47.098;15.446;2024-03-23T09:56:25;16.10;96.70
7163;DHT22;3623;47.098;15.446;2024-03-23T09:58:51;16.30;97.00
7163;DHT22;3623;47.098;15.446;2024-03-23T10:01:18;16.40;96.20
7163;DHT22;3623;47.098;15.446;2024-03-23T10:03:45;16.20;95.20
7163;DHT22;3623;47.098;15.446;2024-03-23T10:06:12;16.30;95.50
7163;DHT22;3623;47.098;15.446;2024-03-23T10:08:40;16.20;94.70
7163;DHT22;3623;47.098;15.446;2024-03-23T10:11:13;15.90;94.60
7163;DHT22;3623;47.098;15.446;2024-03-23T10:13:41;16.30;94.80
7163;DHT22;3623;47.098;15.446;2024-03-23T10:16:09;16.60;94.40
7163;DHT22;3623;47.098;15.446;2024-03-23T10:18:39;16.50;94.50
7163;DHT22;3623;47.098;15.446;2024-03-23T10:21:08;16.60;94.00
7163;DHT22;3623;47.098;15.446;2024-03-23T10:23:34;16.70;93.70
7163;DHT22;3623;47.098;15.446;2024-03-23T10:26:17;16.90;94.00
7163;DHT22;3623;47.098;15.446;2024-03-23T10:28:57;17.30;94.70
7163;DHT22;3623;47.098;15.446;2024-03-23T10:31:25;17.40;92.20
7163;DHT22;3623;47.098;15.446;2024-03-23T10:33:52;17.50;91.90
7163;DHT22;3623;47.098;15.446;2024-03-23T10:36:21;18.10;91.90
7163;DHT22;3623;47.098;15.446;2024-03-23T10:38:50;18.50;91.40
7163;DHT22;3623;47.098;15.446;2024-03-23T10:41:19;19.30;91.20
7163;DHT22;3623;47.098;15.446;2024-03-23T10:43:47;19.70;91.40
7163;DHT22;3623;47.098;15.446;2024-03-23T10:46:14;20.00;86.70
7163;DHT22;3623;47.098;15.446;2024-03-23T10:48:44;20.40;90.00
7163;DHT22;3623;47.098;15.446;2024-03-23T10:51:11;20.70;86.40
7163;DHT22;3623;47.098;15.446;2024-03-23T10:53:39;21.00;85.90
7163;DHT22;3623;47.098;15.446;2024-03-23T10:56:07;21.20;86.80
7163;DHT22;3623;47.098;15.446;2024-03-23T10:58:38;21.20;86.70
7163;DHT22;3623;47.098;15.446;2024-03-23T11:01:05;22.10;87.80
7163;DHT22;3623;47.098;15.446;2024-03-23T11:03:34;22.40;82.00
7163;DHT22;3623;47.098;15.446;2024-03-23T11:06:02;22.10;83.90
7163;DHT22;3623;47.098;15.446;2024-03-23T11:08:31;22.80;86.00
7163;DHT22;3623;47.098;15.446;2024-03-23T11:11:12;23.10;82.10
7163;DHT22;3623;47.098;15.446;2024-03-23T11:13:41;23.50;80.20
7163;DHT22;3623;47.098;15.446;2024-03-23T11:16:15;23.50;83.30
7163;DHT22;3623;47.098;15.446;2024-03-23T11:18:43;24.10;79.90
7163;DHT22;3623;47.098;15.446;2024-03-23T11:21:09;24.30;79.20
7163;DHT22;3623;47.098;15.446;2024-03-23T11:23:37;23.90;81.50
7163;DHT22;3623;47.098;15.446;2024-03-23T11:26:07;24.10;83.30
7163;DHT22;3623;47.098;15.446;2024-03-23T11:28:34;24.40;79.10
7163;DHT22;3623;47.098;15.446;2024-03-23T11:31:09;25.00;79.90
7163;DHT22;3623;47.098;15.446;2024-03-23T11:33:37;25.90;77.70
7163;DHT22;3623;47.098;15.446;2024-03-23T11:36:04;25.50;78.30
7163;DHT22;3623;47.098;15.446;2024-03-23T11:38:36;25.70;75.80
7163;DHT22;3623;47.098;15.446;2024-03-23T11:41:03;26.60;75.90
7163;DHT22;3623;47.098;15.446;2024-03-23T11:43:31;25.80;76.30
7163;DHT22;3623;47.098;15.446;2024-03-23T11:45:57;25.80;78.40
7163;DHT22;3623;47.098;15.446;2024-03-23T11:48:26;26.40;77.10
7163;DHT22;3623;47.098;15.446;2024-03-23T11:50:55;26.90;73.10
7163;DHT22;3623;47.098;15.446;2024-03-23T11:53:24;27.10;72.00
7163;DHT22;3623;47.098;15.446;2024-03-23T11:55:54;27.50;74.30
7163;DHT22;3623;47.098;15.446;2024-03-23T11:58:23;26.90;73.50
7163;DHT22;3623;47.098;15.446;2024-03-23T12:00:51;26.10;71.90
7163;DHT22;3623;47.098;15.446;2024-03-23T12:03:19;25.40;72.80
7163;DHT22;3623;47.098;15.446;2024-03-23T12:05:50;25.50;75.00
7163;DHT22;3623;47.098;15.446;2024-03-23T12:08:23;26.00;76.10
7163;DHT22;3623;47.098;15.446;2024-03-23T12:10:51;26.20;75.50
7163;DHT22;3623;47.098;15.446;2024-03-23T12:13:19;26.10;72.60
7163;DHT22;3623;47.098;15.446;2024-03-23T12:15:46;26.20;72.00
7163;DHT22;3623;47.098;15.446;2024-03-23T12:18:14;27.20;73.20
7163;DHT22;3623;47.098;15.446;2024-03-23T12:20:40;27.70;72.20
7163;DHT22;3623;47.098;15.446;2024-03-23T12:23:10;27.00;72.20
7163;DHT22;3623;47.098;15.446;2024-03-23T12:25:38;27.50;71.90
7163;DHT22;3623;47.098;15.446;2024-03-23T12:28:06;26.90;74.10
7163;DHT22;3623;47.098;15.446;2024-03-23T12:30:34;27.80;73.00
7163;DHT22;3623;47.098;15.446;2024-03-23T12:33:02;27.90;73.60
7163;DHT22;3623;47.098;15.446;2024-03-23T12:35:29;27.60;70.50
7163;DHT22;3623;47.098;15.446;2024-03-23T12:37:56;26.50;73.00
7163;DHT22;3623;47.098;15.446;2024-03-23T12:40:24;27.80;73.40
7163;DHT22;3623;47.098;15.446;2024-03-23T12:42:52;27.60;73.40
7163;DHT22;3623;47.098;15.446;2024-03-23T12:45:18;26.20;71.90
7163;DHT22;3623;47.098;15.446;2024-03-23T12:47:45;25.80;71.60
7163;DHT22;3623;47.098;15.446;2024-03-23T12:50:11;25.50;73.60
7163;DHT22;3623;47.098;15.446;2024-03-23T12:52:39;25.20;76.10
7163;DHT22;3623;47.098;15.446;2024-03-23T12:55:05;25.80;77.00
7163;DHT22;3623;47.098;15.446;2024-03-23T12:57:34;25.70;73.40
7163;DHT22;3623;47.098;15.446;2024-03-23T13:00:00;25.70;75.30
7163;DHT22;3623;47.098;15.446;2024-03-23T13:02:29;26.50;73.80
7163;DHT22;3623;47.098;15.446;2024-03-23T13:04:55;26.50;72.00
7163;DHT22;3623;47.098;15.446;2024-03-23T13:07:24;26.80;74.20
7163;DHT22;3623;47.098;15.446;2024-03-23T13:09:50;27.10;70.10
7163;DHT22;3623;47.098;15.446;2024-03-23T13:12:18;26.40;70.50
7163;DHT22;3623;47.098;15.446;2024-03-23T13:14:46;26.50;71.10
7163;DHT22;3623;47.098;15.446;2024-03-23T13:17:13;27.40;71.20
7163;DHT22;3623;47.098;15.446;2024-03-23T13:19:40;27.80;68.70
7163;DHT22;3623;47.098;15.446;2024-03-23T13:22:07;28.60;70.30
7163;DHT22;3623;47.098;15.446;2024-03-23T13:24:34;27.40;66.20
7163;DHT22;3623;47.098;15.446;2024-03-23T13:27:02;26.80;71.70
7163;DHT22;3623;47.098;15.446;2024-03-23T13:29:28;26.10;74.10
7163;DHT22;3623;47.098;15.446;2024-03-23T13:31:56;25.60;74.80
7163;DHT22;3623;47.098;15.446;2024-03-23T13:34:23;24.60;73.30
7163;DHT22;3623;47.098;15.446;2024-03-23T13:36:50;24.60;74.70
7163;DHT22;3623;47.098;15.446;2024-03-23T13:39:16;24.40;72.10
7163;DHT22;3623;47.098;15.446;2024-03-23T13:41:44;24.20;73.40
7163;DHT22;3623;47.098;15.446;2024-03-23T13:44:12;23.50;73.60
7163;DHT22;3623;47.098;15.446;2024-03-23T13:46:41;23.50;74.10
7163;DHT22;3623;47.098;15.446;2024-03-23T13:49:18;22.70;74.30
7163;DHT22;3623;47.098;15.446;2024-03-23T13:51:47;22.00;72.90
7163;DHT22;3623;47.098;15.446;2024-03-23T13:54:13;21.00;75.80
7163;DHT22;3623;47.098;15.446;2024-03-23T13:56:40;21.10;77.90
7163;DHT22;3623;47.098;15.446;2024-03-23T13:59:06;21.40;78.20
7163;DHT22;3623;47.098;15.446;2024-03-23T14:01:33;21.40;76.10
7163;DHT22;3623;47.098;15.446;2024-03-23T14:03:59;21.90;79.70
7163;DHT22;3623;47.098;15.446;2024-03-23T14:06:28;22.00;74.80
7163;DHT22;3623;47.098;15.446;2024-03-23T14:08:54;21.90;74.40
7163;DHT22;3623;47.098;15.446;2024-03-23T14:11:21;21.80;74.90
7163;DHT22;3623;47.098;15.446;2024-03-23T14:13:48;21.80;74.90
7163;DHT22;3623;47.098;15.446;2024-03-23T14:16:15;22.10;74.50
7163;DHT22;3623;47.098;15.446;2024-03-23T14:18:41;22.00;74.70
7163;DHT22;3623;47.098;15.446;2024-03-23T14:21:08;22.10;72.10
7163;DHT22;3623;47.098;15.446;2024-03-23T14:23:38;22.00;74.50
7163;DHT22;3623;47.098;15.446;2024-03-23T14:26:06;21.90;73.80
7163;DHT22;3623;47.098;15.446;2024-03-23T14:28:35;21.50;75.10
7163;DHT22;3623;47.098;15.446;2024-03-23T14:31:02;21.60;75.40
7163;DHT22;3623;47.098;15.446;2024-03-23T14:33:29;21.20;76.10
7163;DHT22;3623;47.098;15.446;2024-03-23T14:35:58;21.20;76.70
7163;DHT22;3623;47.098;15.446;2024-03-23T14:38:24;21.00;75.00
7163;DHT22;3623;47.098;15.446;2024-03-23T14:40:53;21.10;76.10
7163;DHT22;3623;47.098;15.446;2024-03-23T14:43:19;21.40;76.90
7163;DHT22;3623;47.098;15.446;2024-03-23T14:46:06;21.30;77.10
7163;DHT22;3623;47.098;15.446;2024-03-23T14:48:32;21.00;79.30
7163;DHT22;3623;47.098;15.446;2024-03-23T14:51:00;20.50;78.90
7163;DHT22;3623;47.098;15.446;2024-03-23T14:53:27;20.30;77.70
7163;DHT22;3623;47.098;15.446;2024-03-23T14:55:57;20.10;78.00
7163;DHT22;3623;47.098;15.446;2024-03-23T14:58:23;19.90;77.90
7163;DHT22;3623;47.098;15.446;2024-03-23T15:00:50;19.90;77.30
7163;DHT22;3623;47.098;15.446;2024-03-23T15:03:17;19.70;80.40
7163;DHT22;3623;47.098;15.446;2024-03-23T15:05:52;19.70;81.00
7163;DHT22;3623;47.098;15.446;2024-03-23T15:08:18;19.60;79.60
7163;DHT22;3623;47.098;15.446;2024-03-23T15:10:45;19.20;77.70
7163;DHT22;3623;47.098;15.446;2024-03-23T15:13:13;18.50;82.00
7163;DHT22;3623;47.098;15.446;2024-03-23T15:15:41;17.90;82.90
7163;DHT22;3623;47.098;15.446;2024-03-23T15:18:11;17.40;83.00
7163;DHT22;3623;47.098;15.446;2024-03-23T15:20:40;16.60;84.30
7163;DHT22;3623;47.098;15.446;2024-03-23T15:23:07;16.00;85.60
7163;DHT22;3623;47.098;15.446;2024-03-23T15:25:34;15.70;87.30
7163;DHT22;3623;47.098;15.446;2024-03-23T15:28:00;15.50;88.80
7163;DHT22;3623;47.098;15.446;2024-03-23T15:30:29;15.10;90.10
7163;DHT22;3623;47.098;15.446;2024-03-23T15:32:56;14.70;90.70
7163;DHT22;3623;47.098;15.446;2024-03-23T15:35:23;14.40;90.90
7163;DHT22;3623;47.098;15.446;2024-03-23T15:37:50;14.00;91.60
7163;DHT22;3623;47.098;15.446;2024-03-23T15:40:17;13.70;91.70
7163;DHT22;3623;47.098;15.446;2024-03-23T15:42:43;13.40;92.00
7163;DHT22;3623;47.098;15.446;2024-03-23T15:45:10;13.00;92.20
7163;DHT22;3623;47.098;15.446;2024-03-23T15:47:38;12.60;92.10
7163;DHT22;3623;47.098;15.446;2024-03-23T15:50:07;12.40;92.50
7163;DHT22;3623;47.098;15.446;2024-03-23T15:52:35;12.30;92.50
7163;DHT22;3623;47.098;15.446;2024-03-23T15:55:03;12.20;92.70
7163;DHT22;3623;47.098;15.446;2024-03-23T15:57:33;11.60;93.00
7163;DHT22;3623;47.098;15.446;2024-03-23T16:00:00;11.30;93.10
7163;DHT22;3623;47.098;15.446;2024-03-23T16:02:26;10.80;93.20
7163;DHT22;3623;47.098;15.446;2024-03-23T16:04:55;10.60;93.70
7163;DHT22;3623;47.098;15.446;2024-03-23T16:07:24;10.30;94.60
7163;DHT22;3623;47.098;15.446;2024-03-23T16:09:51;10.00;95.00
7163;DHT22;3623;47.098;15.446;2024-03-23T16:12:17;9.80;96.40
7163;DHT22;3623;47.098;15.446;2024-03-23T16:14:44;9.30;98.70
7163;DHT22;3623;47.098;15.446;2024-03-23T16:17:10;8.80;99.90
7163;DHT22;3623;47.098;15.446;2024-03-23T16:19:38;8.60;99.90
7163;DHT22;3623;47.098;15.446;2024-03-23T16:22:05;8.60;99.90
7163;DHT22;3623;47.098;15.446;2024-03-23T16:24:32;8.50;99.90
7163;DHT22;3623;47.098;15.446;2024-03-23T16:26:59;8.40;99.90
7163;DHT22;3623;47.098;15.446;2024-03-23T16:29:26;8.30;99.90
7163;DHT22;3623;47.098;15.446;2024-03-23T16:31:52;8.00;99.90
7163;DHT22;3623;47.098;15.446;2024-03-23T16:34:20;7.80;99.90
7163;DHT22;3623;47.098;15.446;2024-03-23T16:36:46;7.60;99.90
7163;DHT22;3623;47.098;15.446;2024-03-23T16:39:14;7.50;99.90
7163;DHT22;3623;47.098;15.446;2024-03-23T16:41:41;7.40;99.90
7163;DHT22;3623;47.098;15.446;2024-03-23T16:44:08;7.20;99.90
7163;DHT22;3623;47.098;15.446;2024-03-23T16:46:36;7.00;99.90